Time;durP1;ratioP1;P1;durP2;ratioP2;P2;SDS_P1;SDS_P2;PMS_P1;PMS_P2;Temp;Humidity;BMP_temperature;BMP_pressure;BME280_temperature;BME280_humidity;BME280_pressure;Samples;Min_cycle;Max_cycle;Signal;HPM_P1;HPM_P2
2023/12/23 00:01:45;;;;;;;4.72;1.10;;;10.90;99.90;;;;;;5131617;27;20425;-79
2023/12/23 00:04:11;;;;;;;4.85;1.33;;;10.90;99.90;;;;;;5131168;28;20019;-80
2023/12/23 00:06:36;;;;;;;6.57;1.58;;;10.90;99.90;;;;;;5131294;28;20127;-80
2023/12/23 00:09:02;;;;;;;5.47;1.42;;;10.90;99.90;;;;;;5130953;28;20414;-80
2023/12/23 00:11:28;;;;;;;4.63;1.20;;;10.90;99.90;;;;;;5112137;28;20054;-80
2023/12/23 00:13:53;;;;;;;5.28;1.23;;;10.90;99.90;;;;;;5130815;28;20031;-80
2023/12/23 00:16:19;;;;;;;4.40;1.20;;;10.90;99.90;;;;;;5111966;28;20402;-80
2023/12/23 00:18:45;;;;;;;3.97;1.27;;;10.90;99.90;;;;;;5131181;28;20059;-79
2023/12/23 00:21:10;;;;;;;5.03;1.13;;;10.90;99.90;;;;;;5130750;28;20464;-78
2023/12/23 00:23:36;;;;;;;3.63;1.20;;;10.90;99.90;;;;;;5130432;28;20031;-80
2023/12/23 00:26:02;;;;;;;5.75;1.20;;;10.90;99.90;;;;;;5130721;28;20023;-80
2023/12/23 00:28:27;;;;;;;5.45;1.23;;;10.90;99.90;;;;;;5110970;28;20054;-80
2023/12/23 00:30:53;;;;;;;4.72;1.20;;;10.80;99.90;;;;;;5134386;28;20112;-78
2023/12/23 00:33:19;;;;;;;5.25;1.20;;;10.80;99.90;;;;;;5133555;28;20086;-79
2023/12/23 00:35:45;;;;;;;4.47;1.23;;;10.70;99.90;;;;;;5134319;28;20030;-77
2023/12/23 00:38:10;;;;;;;5.00;1.35;;;10.70;99.90;;;;;;5114835;28;20058;-79
2023/12/23 00:40:36;;;;;;;6.65;1.15;;;10.60;99.90;;;;;;5131791;28;20019;-79
2023/12/23 00:43:02;;;;;;;5.22;1.38;;;10.50;99.90;;;;;;5131593;28;20023;-78
2023/12/23 00:45:28;;;;;;;9.20;1.60;;;10.40;99.90;;;;;;5130076;28;20015;-78
2023/12/23 00:47:53;;;;;;;4.95;1.40;;;10.40;99.90;;;;;;5130848;28;20022;-78
2023/12/23 00:50:19;;;;;;;5.43;1.38;;;10.30;99.90;;;;;;5129966;27;20027;-79
2023/12/23 00:52:45;;;;;;;7.13;1.42;;;10.30;99.90;;;;;;5133861;27;20119;-78
2023/12/23 00:55:10;;;;;;;7.65;1.35;;;10.40;99.90;;;;;;5133866;27;20115;-78
2023/12/23 00:57:36;;;;;;;10.55;1.60;;;10.40;99.90;;;;;;5133602;27;20110;-79
2023/12/23 01:00:02;;;;;;;10.43;1.95;;;10.40;99.90;;;;;;5134215;27;20351;-78
2023/12/23 01:02:27;;;;;;;10.18;1.80;;;10.40;99.90;;;;;;5133213;27;20444;-79
2023/12/23 01:04:54;;;;;;;6.05;1.52;;;10.40;99.90;;;;;;5134092;27;20028;-79
2023/12/23 01:07:21;;;;;;;4.93;1.20;;;10.50;99.90;;;;;;5133791;27;20020;-79
2023/12/23 01:09:46;;;;;;;7.47;1.50;;;10.40;99.90;;;;;;5134085;27;20138;-78
2023/12/23 01:12:12;;;;;;;11.95;2.42;;;10.50;99.90;;;;;;5133941;27;20055;-79
2023/12/23 01:14:38;;;;;;;8.05;1.83;;;10.50;99.90;;;;;;5114806;27;20459;-78
2023/12/23 01:17:03;;;;;;;10.63;2.20;;;10.50;99.90;;;;;;5133438;27;20023;-78
2023/12/23 01:19:29;;;;;;;10.43;2.38;;;10.50;99.90;;;;;;5133263;27;20391;-79
2023/12/23 01:21:55;;;;;;;13.95;2.58;;;10.50;99.90;;;;;;5133608;27;20110;-78
2023/12/23 01:24:21;;;;;;;15.68;2.67;;;10.50;99.90;;;;;;5132591;27;20058;-79
2023/12/23 01:26:46;;;;;;;14.32;2.35;;;10.50;99.90;;;;;;5133770;27;20046;-80
2023/12/23 01:29:12;;;;;;;16.08;2.92;;;10.50;99.90;;;;;;5133054;27;20072;-80
2023/12/23 01:31:38;;;;;;;11.50;2.53;;;10.50;99.90;;;;;;5133484;27;20042;-80
2023/12/23 01:34:03;;;;;;;10.52;2.75;;;10.50;99.90;;;;;;5133702;27;20440;-79
2023/12/23 01:36:29;;;;;;;12.90;2.30;;;10.50;99.90;;;;;;5132798;27;20118;-79
2023/12/23 01:38:55;;;;;;;17.98;3.28;;;10.50;99.90;;;;;;5133737;27;20429;-79
2023/12/23 01:41:20;;;;;;;10.25;2.75;;;10.50;99.90;;;;;;5132709;27;20019;-78
2023/12/23 01:43:46;;;;;;;15.05;2.70;;;10.50;99.90;;;;;;5132744;27;20019;-78
2023/12/23 01:46:12;;;;;;;17.98;3.13;;;10.50;99.90;;;;;;5114851;27;20027;-80
2023/12/23 01:48:41;;;;;;;16.02;2.78;;;10.50;99.90;;;;;;5133390;27;20019;-78
2023/12/23 01:51:08;;;;;;;13.57;2.70;;;10.50;99.90;;;;;;5115162;27;20023;-79
2023/12/23 01:53:35;;;;;;;13.55;2.35;;;10.60;99.90;;;;;;5133095;27;20417;-79
2023/12/23 01:56:01;;;;;;;12.45;2.50;;;10.60;99.90;;;;;;5133409;27;20417;-80
2023/12/23 01:58:27;;;;;;;14.40;2.90;;;10.60;99.90;;;;;;5132798;27;20024;-79
2023/12/23 02:00:53;;;;;;;13.05;2.05;;;10.50;99.90;;;;;;5133493;27;20019;-80
2023/12/23 02:03:19;;;;;;;16.02;2.60;;;10.60;99.90;;;;;;5132388;27;20068;-80
2023/12/23 02:05:45;;;;;;;12.50;2.75;;;10.60;99.90;;;;;;5133392;27;20027;-79
2023/12/23 02:08:12;;;;;;;16.08;2.30;;;10.60;99.90;;;;;;5133183;27;20053;-79
2023/12/23 02:10:38;;;;;;;10.63;2.10;;;10.60;99.90;;;;;;5133083;27;20025;-79
2023/12/23 02:13:31;;;;;;;9.15;2.03;;;10.60;99.90;;;;;;5132826;27;20031;-79
2023/12/23 02:15:59;;;;;;;7.32;1.80;;;10.60;99.90;;;;;;5113941;27;20038;-80
2023/12/23 02:18:25;;;;;;;7.60;1.67;;;10.60;99.90;;;;;;5132459;27;20377;-80
2023/12/23 02:20:51;;;;;;;7.43;2.05;;;10.50;99.90;;;;;;5114855;27;20043;-80
2023/12/23 02:23:20;;;;;;;9.35;1.75;;;10.60;99.90;;;;;;5132327;27;20027;-80
2023/12/23 02:25:51;;;;;;;11.82;1.85;;;10.60;99.90;;;;;;5132754;27;20092;-79
2023/12/23 02:28:19;;;;;;;9.45;1.50;;;10.60;99.90;;;;;;5132263;27;20023;-79
2023/12/23 02:30:47;;;;;;;12.23;2.30;;;10.60;99.90;;;;;;5132901;27;20027;-80
2023/12/23 02:33:13;;;;;;;7.55;1.40;;;10.60;99.90;;;;;;5132941;27;20110;-81
2023/12/23 02:35:39;;;;;;;7.70;1.55;;;10.60;99.90;;;;;;5132731;27;20055;-79
2023/12/23 02:38:05;;;;;;;6.72;1.60;;;10.60;99.90;;;;;;5132998;27;20344;-79
2023/12/23 02:40:30;;;;;;;10.65;1.67;;;10.60;99.90;;;;;;5132583;27;20020;-79
2023/12/23 02:42:56;;;;;;;7.78;1.70;;;10.50;99.90;;;;;;5114616;27;20019;-80
2023/12/23 02:45:23;;;;;;;10.27;1.63;;;10.40;99.90;;;;;;5132287;27;20035;-79
2023/12/23 02:47:48;;;;;;;7.72;1.67;;;10.40;99.90;;;;;;5114737;27;20027;-78
2023/12/23 02:50:14;;;;;;;7.05;1.42;;;10.40;99.90;;;;;;5114184;27;20098;-78
2023/12/23 02:52:40;;;;;;;12.20;1.75;;;10.40;99.90;;;;;;5113499;27;20039;-78
2023/12/23 02:55:06;;;;;;;3.30;0.70;;;10.40;99.90;;;;;;5132887;27;20022;-78
2023/12/23 02:57:32;;;;;;;3.60;1.20;;;10.40;99.90;;;;;;5131835;27;20039;-78
2023/12/23 02:59:57;;;;;;;7.03;1.17;;;10.40;99.90;;;;;;5132652;27;20050;-78
2023/12/23 03:02:23;;;;;;;3.17;0.90;;;10.40;99.90;;;;;;5113461;27;20364;-78
2023/12/23 03:04:49;;;;;;;4.90;1.02;;;10.40;99.90;;;;;;5131997;27;20027;-78
2023/12/23 03:07:14;;;;;;;6.20;1.17;;;10.30;99.90;;;;;;5132190;27;20448;-79
2023/12/23 03:09:40;;;;;;;4.05;1.00;;;10.30;99.90;;;;;;5132002;27;20027;-78
2023/12/23 03:12:07;;;;;;;3.97;0.75;;;10.30;99.90;;;;;;5131613;27;20341;-78
2023/12/23 03:14:32;;;;;;;4.28;0.80;;;10.30;99.90;;;;;;5130900;27;20512;-78
2023/12/23 03:16:58;;;;;;;5.38;0.73;;;10.20;99.90;;;;;;5132229;27;20015;-79
2023/12/23 03:19:24;;;;;;;2.05;0.70;;;10.20;99.90;;;;;;5131726;27;20359;-79
2023/12/23 03:21:49;;;;;;;1.70;0.52;;;10.20;99.90;;;;;;5132288;27;20023;-79
2023/12/23 03:24:15;;;;;;;3.13;0.65;;;10.10;99.90;;;;;;5132256;27;20031;-79
2023/12/23 03:26:41;;;;;;;2.63;0.70;;;10.10;99.90;;;;;;5131494;27;20316;-78
2023/12/23 03:29:06;;;;;;;2.50;0.80;;;10.00;99.90;;;;;;5131965;27;20015;-78
2023/12/23 03:31:33;;;;;;;3.13;0.80;;;10.10;99.90;;;;;;5131864;27;20071;-78
2023/12/23 03:34:02;;;;;;;4.57;1.00;;;10.00;99.90;;;;;;5132046;27;20487;-78
2023/12/23 03:36:28;;;;;;;3.03;0.70;;;10.00;99.90;;;;;;5132018;27;20064;-78
2023/12/23 03:38:55;;;;;;;1.92;0.75;;;10.00;99.90;;;;;;5132272;27;20440;-78
2023/12/23 03:41:21;;;;;;;2.38;0.70;;;10.00;99.90;;;;;;5131667;27;20022;-79
2023/12/23 03:43:47;;;;;;;6.07;0.60;;;9.90;99.90;;;;;;5132191;27;20108;-78
2023/12/23 03:46:13;;;;;;;6.25;1.17;;;9.90;99.90;;;;;;5132615;27;20423;-78
2023/12/23 03:48:38;;;;;;;4.72;1.58;;;9.90;99.90;;;;;;5113850;27;20027;-78
2023/12/23 03:51:04;;;;;;;8.02;1.27;;;9.90;99.90;;;;;;5132003;27;20034;-78
2023/12/23 03:53:30;;;;;;;6.50;1.27;;;9.80;99.90;;;;;;5131857;27;20071;-79
2023/12/23 03:55:56;;;;;;;6.05;1.10;;;9.80;99.90;;;;;;5132772;27;20018;-80
2023/12/23 03:58:21;;;;;;;4.28;0.90;;;9.80;99.90;;;;;;5113704;27;20456;-79
2023/12/23 04:00:47;;;;;;;3.55;0.80;;;9.80;99.90;;;;;;5132297;27;20019;-79
2023/12/23 04:03:13;;;;;;;3.97;0.88;;;9.80;99.90;;;;;;5131933;27;20031;-79
2023/12/23 04:05:39;;;;;;;5.60;1.33;;;9.80;99.90;;;;;;5131265;28;20064;-79
2023/12/23 04:08:05;;;;;;;5.70;1.60;;;9.90;99.90;;;;;;5132158;28;20023;-79
2023/12/23 04:10:31;;;;;;;7.60;1.42;;;9.90;99.90;;;;;;5113348;28;20045;-79
2023/12/23 04:12:57;;;;;;;5.55;1.23;;;9.90;99.90;;;;;;5131733;28;20130;-79
2023/12/23 04:15:22;;;;;;;4.53;1.00;;;9.90;99.90;;;;;;5131143;28;20126;-80
2023/12/23 04:17:48;;;;;;;7.55;1.75;;;9.90;99.90;;;;;;5113290;28;20225;-79
2023/12/23 04:20:14;;;;;;;9.18;1.40;;;9.90;99.90;;;;;;5132059;28;20019;-79
2023/12/23 04:22:40;;;;;;;4.60;1.17;;;9.90;99.90;;;;;;5131121;28;20158;-79
2023/12/23 04:25:06;;;;;;;9.77;1.35;;;9.90;99.90;;;;;;5132164;27;20084;-79
2023/12/23 04:27:31;;;;;;;5.38;1.15;;;10.00;99.90;;;;;;5135482;27;20051;-80
2023/12/23 04:29:57;;;;;;;12.02;1.25;;;10.00;99.90;;;;;;5136230;27;20050;-81
2023/12/23 04:32:23;;;;;;;8.45;1.52;;;10.00;99.90;;;;;;5116980;27;20339;-81
2023/12/23 04:34:48;;;;;;;6.03;1.38;;;10.00;99.90;;;;;;5135389;27;20133;-80
2023/12/23 04:37:14;;;;;;;5.93;1.00;;;10.00;99.90;;;;;;5135481;27;20020;-79
2023/12/23 04:39:40;;;;;;;6.95;1.33;;;10.10;99.90;;;;;;5135096;27;20062;-80
2023/12/23 04:42:06;;;;;;;9.95;1.10;;;10.00;99.90;;;;;;5135483;27;20022;-79
2023/12/23 04:44:31;;;;;;;6.20;1.10;;;10.10;99.90;;;;;;5134757;27;20024;-80
2023/12/23 04:46:57;;;;;;;5.63;1.20;;;10.10;99.90;;;;;;5135438;27;20023;-80
2023/12/23 04:49:24;;;;;;;9.23;1.17;;;10.10;99.90;;;;;;5135152;27;20087;-81
2023/12/23 04:51:50;;;;;;;8.52;1.35;;;10.10;99.90;;;;;;5116452;27;20360;-80
2023/12/23 04:54:15;;;;;;;7.85;1.65;;;10.10;99.90;;;;;;5135149;27;20023;-80
2023/12/23 04:56:41;;;;;;;8.25;1.52;;;10.10;99.90;;;;;;5134421;27;20027;-80
2023/12/23 04:59:08;;;;;;;7.30;1.75;;;10.10;99.90;;;;;;5135008;27;20106;-80
2023/12/23 05:01:33;;;;;;;9.63;1.70;;;10.10;99.90;;;;;;5134182;27;20091;-80
2023/12/23 05:03:59;;;;;;;4.90;1.80;;;10.20;99.90;;;;;;5116287;27;20549;-80
2023/12/23 05:06:25;;;;;;;9.05;1.42;;;10.10;99.90;;;;;;5134320;27;20018;-80
2023/12/23 05:08:50;;;;;;;6.80;1.30;;;10.20;99.90;;;;;;5134511;27;20047;-79
2023/12/23 05:11:16;;;;;;;8.50;1.27;;;10.20;99.90;;;;;;5134874;27;20436;-80
2023/12/23 05:13:42;;;;;;;7.90;1.42;;;10.20;99.90;;;;;;5134171;27;20117;-80
2023/12/23 05:16:08;;;;;;;7.70;1.25;;;10.20;99.90;;;;;;5116083;27;20408;-80
2023/12/23 05:18:34;;;;;;;7.10;1.45;;;10.20;99.90;;;;;;5134266;27;20093;-80
2023/12/23 05:21:00;;;;;;;8.70;1.80;;;10.20;99.90;;;;;;5134253;27;20019;-80
2023/12/23 05:23:25;;;;;;;3.55;1.05;;;10.20;99.90;;;;;;5133903;27;20103;-81
2023/12/23 05:25:53;;;;;;;5.95;1.27;;;10.30;99.90;;;;;;5134648;27;20333;-78
2023/12/23 05:28:18;;;;;;;9.32;1.70;;;10.30;99.90;;;;;;5133987;27;20058;-78
2023/12/23 05:30:44;;;;;;;4.60;1.02;;;10.30;99.90;;;;;;5133850;27;20050;-79
2023/12/23 05:33:10;;;;;;;6.68;1.40;;;10.30;99.90;;;;;;5115971;27;20023;-79
2023/12/23 05:35:35;;;;;;;7.97;1.52;;;10.30;99.90;;;;;;5133188;27;20051;-79
2023/12/23 05:38:01;;;;;;;3.22;0.85;;;10.30;99.90;;;;;;5115047;27;20019;-78
2023/12/23 05:40:27;;;;;;;4.28;1.23;;;10.30;99.90;;;;;;5133426;27;20470;-80
2023/12/23 05:42:52;;;;;;;8.48;1.20;;;10.40;99.90;;;;;;5134457;27;20110;-79
2023/12/23 05:45:18;;;;;;;7.38;0.95;;;10.40;99.90;;;;;;5116081;27;20034;-79
2023/12/23 05:47:44;;;;;;;5.75;1.65;;;10.40;99.90;;;;;;5098531;27;20408;-79
2023/12/23 05:50:10;;;;;;;6.93;0.90;;;10.40;99.90;;;;;;5134193;27;20476;-79
2023/12/23 05:52:36;;;;;;;4.85;0.98;;;10.40;99.90;;;;;;5133345;27;20047;-79
2023/12/23 05:55:02;;;;;;;6.68;1.17;;;10.40;99.90;;;;;;5134069;27;20045;-78
2023/12/23 05:57:28;;;;;;;5.10;1.05;;;10.40;99.90;;;;;;5133355;27;20023;-79
2023/12/23 05:59:54;;;;;;;5.80;1.20;;;10.40;99.90;;;;;;5133947;27;20094;-79
2023/12/23 06:02:20;;;;;;;5.78;1.23;;;10.40;99.90;;;;;;5134300;27;20076;-79
2023/12/23 06:04:46;;;;;;;10.18;1.52;;;10.30;99.90;;;;;;5133780;27;20023;-79
2023/12/23 06:07:12;;;;;;;7.13;0.90;;;10.40;99.90;;;;;;5133838;27;20024;-79
2023/12/23 06:09:38;;;;;;;5.55;1.35;;;10.30;99.90;;;;;;5133435;27;20106;-80
2023/12/23 06:12:04;;;;;;;7.30;1.45;;;10.30;99.90;;;;;;5115757;27;20058;-80
2023/12/23 06:14:29;;;;;;;5.47;1.05;;;10.30;99.90;;;;;;5133124;27;20048;-81
2023/12/23 06:16:55;;;;;;;4.25;0.98;;;10.30;99.90;;;;;;5133476;27;20130;-79
2023/12/23 06:19:21;;;;;;;7.35;0.90;;;10.20;99.90;;;;;;5133575;27;20103;-80
2023/12/23 06:21:46;;;;;;;4.28;1.10;;;10.20;99.90;;;;;;5133397;27;20464;-80
2023/12/23 06:24:15;;;;;;;5.35;1.15;;;10.20;99.90;;;;;;5134327;27;20045;-79
2023/12/23 06:26:41;;;;;;;2.92;0.70;;;10.20;99.90;;;;;;5133240;27;20027;-80
2023/12/23 06:29:07;;;;;;;3.95;0.70;;;10.20;99.90;;;;;;5133639;27;20034;-77
2023/12/23 06:31:33;;;;;;;4.05;1.02;;;10.30;99.90;;;;;;5132894;27;20034;-78
2023/12/23 06:33:59;;;;;;;5.53;0.73;;;10.30;99.90;;;;;;5133024;27;20031;-78
2023/12/23 06:36:25;;;;;;;2.58;0.88;;;10.20;99.90;;;;;;5133392;27;20023;-79
2023/12/23 06:38:51;;;;;;;3.30;0.82;;;10.20;99.90;;;;;;5133225;27;20019;-79
2023/12/23 06:41:16;;;;;;;2.38;0.70;;;10.20;99.90;;;;;;5135903;27;20023;-78
2023/12/23 06:43:42;;;;;;;6.00;0.80;;;10.20;99.90;;;;;;5132504;27;20477;-78
2023/12/23 06:46:11;;;;;;;4.95;0.77;;;10.20;99.90;;;;;;5133141;27;20080;-78
2023/12/23 06:48:38;;;;;;;3.17;0.70;;;10.20;99.90;;;;;;5133275;27;20061;-79
2023/12/23 06:51:04;;;;;;;3.05;0.70;;;10.20;99.90;;;;;;5133240;27;20019;-78
2023/12/23 06:53:30;;;;;;;6.82;1.27;;;10.20;99.90;;;;;;5133095;27;20460;-79
2023/12/23 06:55:55;;;;;;;4.10;0.95;;;10.30;99.90;;;;;;5132904;27;20064;-77
2023/12/23 06:58:28;;;;;;;6.07;1.38;;;10.30;99.90;;;;;;5132665;27;20090;-78
2023/12/23 07:00:54;;;;;;;6.95;0.98;;;10.30;99.90;;;;;;5132193;27;20505;-77
2023/12/23 07:03:20;;;;;;;5.20;0.93;;;10.30;99.90;;;;;;5132571;27;20129;-78
2023/12/23 07:05:46;;;;;;;6.18;1.30;;;10.40;99.90;;;;;;5131995;27;20015;-78
2023/12/23 07:08:11;;;;;;;6.43;1.40;;;10.30;99.90;;;;;;5131897;27;20629;-78
2023/12/23 07:10:37;;;;;;;6.20;1.38;;;10.40;99.90;;;;;;5131307;27;20043;-79
2023/12/23 07:13:03;;;;;;;4.90;1.15;;;10.40;99.90;;;;;;5131867;27;20110;-79
2023/12/23 07:15:29;;;;;;;5.90;1.20;;;10.40;99.90;;;;;;5132077;27;20030;-79
2023/12/23 07:17:55;;;;;;;4.60;1.00;;;10.40;99.90;;;;;;5131861;27;20102;-79
2023/12/23 07:20:21;;;;;;;7.47;1.30;;;10.50;99.90;;;;;;5132282;27;20077;-79
2023/12/23 07:22:48;;;;;;;6.28;1.05;;;10.50;99.90;;;;;;5131600;27;20018;-79
2023/12/23 07:25:14;;;;;;;8.10;1.38;;;10.50;99.90;;;;;;5131994;27;20015;-79
2023/12/23 07:27:39;;;;;;;5.15;0.98;;;10.50;99.90;;;;;;5131633;27;20048;-79
2023/12/23 07:30:06;;;;;;;9.35;1.08;;;10.50;99.90;;;;;;5113639;27;20027;-78
2023/12/23 07:32:31;;;;;;;4.28;0.70;;;10.50;99.90;;;;;;5131309;27;20053;-80
2023/12/23 07:34:57;;;;;;;2.90;0.93;;;10.40;99.90;;;;;;5132086;27;20023;-79
2023/12/23 07:37:23;;;;;;;4.05;1.00;;;10.40;99.90;;;;;;5131970;27;20071;-81
2023/12/23 07:39:48;;;;;;;4.78;0.73;;;10.40;99.90;;;;;;5130940;27;20023;-78
2023/12/23 07:42:14;;;;;;;8.43;1.00;;;10.40;99.90;;;;;;5112953;27;20019;-78
2023/12/23 07:44:40;;;;;;;3.58;0.88;;;10.40;99.90;;;;;;5131290;27;20057;-78
2023/12/23 07:47:06;;;;;;;5.50;0.93;;;10.40;99.90;;;;;;5131351;27;20027;-80
2023/12/23 07:49:34;;;;;;;6.60;1.17;;;10.40;99.90;;;;;;5132083;27;20019;-79
2023/12/23 07:52:00;;;;;;;8.38;1.10;;;10.30;99.90;;;;;;5131457;27;20099;-79
2023/12/23 07:54:25;;;;;;;3.90;0.73;;;10.40;99.90;;;;;;5131827;27;20174;-79
2023/12/23 07:56:52;;;;;;;3.75;0.80;;;10.40;99.90;;;;;;5130883;27;20050;-80
2023/12/23 07:59:18;;;;;;;5.72;0.88;;;10.40;99.90;;;;;;5132213;27;20357;-80
2023/12/23 08:01:44;;;;;;;4.53;0.73;;;10.40;99.90;;;;;;5111881;27;20030;-79
2023/12/23 08:04:10;;;;;;;2.63;0.50;;;10.30;99.90;;;;;;5113484;27;20033;-79
2023/12/23 08:06:36;;;;;;;4.18;0.70;;;10.30;99.90;;;;;;5130489;28;20019;-79
2023/12/23 08:09:02;;;;;;;6.25;0.98;;;10.30;99.90;;;;;;5131486;28;20420;-79
2023/12/23 08:11:29;;;;;;;7.15;1.05;;;10.20;99.90;;;;;;5131271;28;20400;-79
2023/12/23 08:13:55;;;;;;;5.20;0.85;;;10.20;99.90;;;;;;5130728;28;20034;-79
2023/12/23 08:16:20;;;;;;;3.03;0.80;;;10.20;99.90;;;;;;5113038;28;20075;-80
2023/12/23 08:18:46;;;;;;;3.67;0.77;;;10.20;99.90;;;;;;5130793;28;20337;-80
2023/12/23 08:21:12;;;;;;;2.53;0.50;;;10.20;99.90;;;;;;5131673;28;20027;-80
2023/12/23 08:23:37;;;;;;;4.00;0.60;;;10.20;99.90;;;;;;5130740;28;20048;-77
2023/12/23 08:26:03;;;;;;;5.97;0.82;;;10.30;99.90;;;;;;5112543;28;20050;-80
2023/12/23 08:28:29;;;;;;;4.93;0.77;;;10.30;99.90;;;;;;5131327;28;20105;-80
2023/12/23 08:30:55;;;;;;;3.33;0.70;;;10.30;99.90;;;;;;5112063;28;20114;-82
2023/12/23 08:33:21;;;;;;;2.75;0.63;;;10.20;99.90;;;;;;5130996;28;20106;-81
2023/12/23 08:35:47;;;;;;;3.83;0.60;;;10.30;99.90;;;;;;5130918;28;20019;-80
2023/12/23 08:38:13;;;;;;;3.90;0.82;;;10.30;99.90;;;;;;5131471;28;20113;-80
2023/12/23 08:40:39;;;;;;;3.00;0.70;;;10.20;99.90;;;;;;5112175;28;20056;-81
2023/12/23 08:43:04;;;;;;;3.83;0.50;;;10.20;99.90;;;;;;5131078;28;20027;-79
2023/12/23 08:45:30;;;;;;;5.68;1.15;;;10.20;99.90;;;;;;5130962;28;20043;-78
2023/12/23 08:47:56;;;;;;;1.67;0.50;;;10.20;99.90;;;;;;5130670;28;20664;-79
2023/12/23 08:50:22;;;;;;;2.83;0.80;;;10.20;99.90;;;;;;5112237;28;20105;-79
2023/12/23 08:52:48;;;;;;;4.93;0.65;;;10.20;99.90;;;;;;5130551;28;20044;-79
2023/12/23 08:55:15;;;;;;;2.30;0.60;;;10.20;99.90;;;;;;5131337;28;20019;-79
2023/12/23 08:57:40;;;;;;;4.93;0.75;;;10.10;99.90;;;;;;5130407;28;20498;-79
2023/12/23 09:00:07;;;;;;;6.57;1.15;;;10.10;99.90;;;;;;5131286;28;20054;-79
2023/12/23 09:02:34;;;;;;;3.90;0.60;;;10.10;99.90;;;;;;5130568;28;20118;-79
2023/12/23 09:05:00;;;;;;;3.55;0.68;;;10.10;99.90;;;;;;5112072;28;20031;-79
2023/12/23 09:07:25;;;;;;;8.68;1.00;;;10.10;99.90;;;;;;5131075;28;20532;-79
2023/12/23 09:09:51;;;;;;;3.22;0.70;;;10.20;99.90;;;;;;5130153;28;20452;-80
2023/12/23 09:12:19;;;;;;;1.80;0.60;;;10.10;99.90;;;;;;5113270;27;20027;-79
2023/12/23 09:14:45;;;;;;;2.15;0.60;;;10.20;99.90;;;;;;5133928;27;20229;-79
2023/12/23 09:17:11;;;;;;;4.97;1.00;;;10.20;99.90;;;;;;5134692;27;20015;-79
2023/12/23 09:19:37;;;;;;;6.05;0.75;;;10.20;99.90;;;;;;5115981;27;20060;-79
2023/12/23 09:22:03;;;;;;;5.05;1.00;;;10.20;99.90;;;;;;5116030;27;20030;-80
2023/12/23 09:24:29;;;;;;;2.28;0.77;;;10.30;99.90;;;;;;5116007;27;20023;-78
2023/12/23 09:26:54;;;;;;;3.30;0.70;;;10.30;99.90;;;;;;5134046;27;20023;-79
2023/12/23 09:29:21;;;;;;;5.78;1.10;;;10.30;99.90;;;;;;5134188;27;20015;-78
2023/12/23 09:31:46;;;;;;;3.63;0.85;;;10.40;99.90;;;;;;5133756;27;20181;-78
2023/12/23 09:34:12;;;;;;;4.47;0.75;;;10.40;99.90;;;;;;5133964;27;20276;-78
2023/12/23 09:36:38;;;;;;;4.85;0.90;;;10.40;99.90;;;;;;5134348;27;20416;-80
2023/12/23 09:39:04;;;;;;;7.55;0.98;;;10.40;99.90;;;;;;5133701;27;20031;-79
2023/12/23 09:41:32;;;;;;;4.70;0.95;;;10.40;99.90;;;;;;5133934;27;20412;-78
2023/12/23 09:43:58;;;;;;;4.43;0.57;;;10.40;99.90;;;;;;5133360;27;20027;-79
2023/12/23 09:46:23;;;;;;;5.18;0.90;;;10.40;99.90;;;;;;5134385;27;20101;-78
2023/12/23 09:48:49;;;;;;;4.65;0.80;;;10.40;99.90;;;;;;5114678;27;20126;-79
2023/12/23 09:51:19;;;;;;;2.58;0.98;;;10.40;99.90;;;;;;5115597;27;20019;-79
2023/12/23 09:53:47;;;;;;;9.93;1.10;;;10.40;99.90;;;;;;5133363;27;20043;-79
2023/12/23 09:56:13;;;;;;;5.40;0.75;;;10.40;99.90;;;;;;5134121;27;20062;-77
2023/12/23 09:58:42;;;;;;;3.42;0.90;;;10.40;99.90;;;;;;5134528;27;20027;-78
2023/12/23 10:01:09;;;;;;;2.95;0.50;;;10.40;99.90;;;;;;5134614;27;20016;-79
2023/12/23 10:03:34;;;;;;;7.45;0.98;;;10.50;99.90;;;;;;5134711;27;20034;-80
2023/12/23 10:06:00;;;;;;;2.90;0.85;;;10.40;99.90;;;;;;5134746;27;20019;-78
2023/12/23 10:08:27;;;;;;;4.20;0.70;;;10.50;99.90;;;;;;5133946;27;20023;-79
2023/12/23 10:10:53;;;;;;;3.80;0.90;;;10.50;99.90;;;;;;5134318;27;20026;-79
2023/12/23 10:13:19;;;;;;;3.70;0.82;;;10.50;99.90;;;;;;5134939;27;20031;-78
2023/12/23 10:15:45;;;;;;;3.38;1.00;;;10.50;99.90;;;;;;5134544;27;20039;-78
2023/12/23 10:18:12;;;;;;;4.38;0.80;;;10.60;99.90;;;;;;5134673;27;20019;-79
2023/12/23 10:20:38;;;;;;;3.25;0.90;;;10.60;99.90;;;;;;5134338;27;20022;-78
2023/12/23 10:23:04;;;;;;;2.92;0.70;;;10.60;99.90;;;;;;5133070;27;20122;-79
2023/12/23 10:25:30;;;;;;;3.22;1.05;;;10.60;99.90;;;;;;5133947;27;20102;-79
2023/12/23 10:28:04;;;;;;;2.22;0.90;;;10.70;99.90;;;;;;5080598;27;20102;-79
2023/12/23 10:30:41;;;;;;;3.53;0.47;;;10.70;99.90;;;;;;5133620;27;20019;-79
2023/12/23 10:33:08;;;;;;;4.32;1.05;;;10.70;99.90;;;;;;5132861;27;20107;-79
2023/12/23 10:35:44;;;;;;;5.78;0.80;;;10.70;99.90;;;;;;5114223;27;20359;-78
2023/12/23 10:38:13;;;;;;;2.03;0.60;;;10.70;99.90;;;;;;5132679;27;20182;-79
2023/12/23 10:40:42;;;;;;;1.85;0.65;;;10.70;99.90;;;;;;5114315;27;20027;-79
2023/12/23 10:43:08;;;;;;;4.13;0.90;;;10.70;99.90;;;;;;5131930;27;20023;-79
2023/12/23 10:45:35;;;;;;;3.25;1.13;;;10.80;99.90;;;;;;5133071;27;20027;-79
2023/12/23 10:48:02;;;;;;;2.40;0.70;;;10.80;99.90;;;;;;5114297;27;20027;-80
2023/12/23 10:50:29;;;;;;;2.83;0.57;;;10.80;99.90;;;;;;5133384;27;20487;-78
2023/12/23 10:52:56;;;;;;;1.13;0.60;;;10.80;99.90;;;;;;5113899;27;20475;-80
2023/12/23 10:55:25;;;;;;;1.60;0.77;;;10.80;99.90;;;;;;5133189;27;20034;-80
2023/12/23 10:57:53;;;;;;;1.73;0.60;;;10.80;99.90;;;;;;5132643;27;20023;-80
2023/12/23 11:00:19;;;;;;;2.40;0.60;;;10.80;99.90;;;;;;5114453;27;20122;-79
2023/12/23 11:02:48;;;;;;;3.63;0.80;;;10.70;99.90;;;;;;5132772;27;20018;-80
2023/12/23 11:05:15;;;;;;;3.38;0.95;;;10.70;99.90;;;;;;5133076;27;20151;-79
2023/12/23 11:07:46;;;;;;;2.72;0.70;;;10.70;99.90;;;;;;5133092;27;20054;-79
2023/12/23 11:10:14;;;;;;;3.63;0.57;;;10.80;99.90;;;;;;5114583;27;20015;-79
2023/12/23 11:12:43;;;;;;;1.75;0.55;;;10.80;99.90;;;;;;5133154;27;20011;-79
2023/12/23 11:15:09;;;;;;;3.20;0.60;;;10.80;99.90;;;;;;5131998;27;20401;-79
2023/12/23 11:17:40;;;;;;;6.53;0.93;;;10.80;99.90;;;;;;5133102;27;20026;-79
2023/12/23 11:20:07;;;;;;;2.72;0.90;;;10.90;99.90;;;;;;5132375;27;20031;-78
2023/12/23 11:22:37;;;;;;;3.92;0.60;;;10.90;99.90;;;;;;5132554;27;20278;-79
2023/12/23 11:25:03;;;;;;;2.83;0.90;;;10.90;99.90;;;;;;5131830;27;20102;-79
2023/12/23 11:27:34;;;;;;;2.05;0.90;;;10.90;99.90;;;;;;5132160;27;20022;-79
2023/12/23 11:30:02;;;;;;;5.40;1.30;;;11.00;99.90;;;;;;5113176;27;20065;-79
2023/12/23 11:32:46;;;;;;;2.92;0.73;;;11.00;99.90;;;;;;5132163;27;20019;-79
2023/12/23 11:35:12;;;;;;;3.28;0.70;;;11.10;99.90;;;;;;5112878;27;20027;-79
2023/12/23 11:37:55;;;;;;;5.70;1.10;;;11.10;99.90;;;;;;5113847;27;20057;-79
2023/12/23 11:40:21;;;;;;;3.47;0.90;;;11.10;99.90;;;;;;5131974;27;20308;-79
2023/12/23 11:42:49;;;;;;;4.18;1.10;;;11.20;99.90;;;;;;5131736;27;20027;-79
2023/12/23 11:45:15;;;;;;;3.63;0.93;;;11.20;99.90;;;;;;5131815;27;20057;-79
2023/12/23 11:47:41;;;;;;;1.50;0.60;;;11.20;99.90;;;;;;5132649;27;20030;-79
2023/12/23 11:50:08;;;;;;;3.25;0.52;;;11.20;99.90;;;;;;5112564;27;20031;-79
2023/12/23 11:52:35;;;;;;;3.33;0.80;;;11.20;99.90;;;;;;5112401;27;20102;-79
2023/12/23 11:55:03;;;;;;;1.75;0.90;;;11.30;99.90;;;;;;5130513;27;20371;-79
2023/12/23 11:57:30;;;;;;;3.25;0.80;;;11.30;99.90;;;;;;5131364;27;20376;-78
2023/12/23 11:59:58;;;;;;;3.97;1.00;;;11.30;99.90;;;;;;5131034;27;20425;-79
2023/12/23 12:02:25;;;;;;;2.53;1.08;;;11.30;99.90;;;;;;5131307;27;20054;-79
2023/12/23 12:04:51;;;;;;;2.92;0.90;;;11.30;99.90;;;;;;5130265;27;20209;-80
2023/12/23 12:07:18;;;;;;;2.83;0.80;;;11.30;99.90;;;;;;5131136;28;20102;-79
2023/12/23 12:09:44;;;;;;;4.35;1.00;;;11.40;99.90;;;;;;5131484;28;20030;-79
2023/12/23 12:12:10;;;;;;;3.15;1.27;;;11.40;99.90;;;;;;5131633;28;20031;-79
2023/12/23 12:14:35;;;;;;;3.47;0.98;;;11.40;99.90;;;;;;5130959;28;20086;-79
2023/12/23 12:17:01;;;;;;;5.88;2.25;;;11.40;99.90;;;;;;5130329;28;20432;-80
2023/12/23 12:19:27;;;;;;;2.60;1.38;;;11.30;99.90;;;;;;5130750;28;20066;-79
2023/12/23 12:21:52;;;;;;;3.25;0.93;;;11.30;99.90;;;;;;5130385;28;20044;-80
2023/12/23 12:24:18;;;;;;;3.58;1.10;;;11.40;99.90;;;;;;5130787;28;20045;-78
2023/12/23 12:26:44;;;;;;;2.67;0.82;;;11.30;99.90;;;;;;5130501;28;20415;-78
2023/12/23 12:29:09;;;;;;;1.27;0.47;;;11.30;99.90;;;;;;5129926;28;20087;-78
2023/12/23 12:31:37;;;;;;;2.00;0.90;;;11.40;99.90;;;;;;5130320;28;20030;-78
2023/12/23 12:34:03;;;;;;;2.75;1.13;;;11.40;99.90;;;;;;5129934;28;20023;-78
2023/12/23 12:36:28;;;;;;;3.15;0.80;;;11.40;99.90;;;;;;5130277;28;20333;-79
2023/12/23 12:38:54;;;;;;;1.27;0.60;;;11.40;99.90;;;;;;5129827;28;20072;-79
2023/12/23 12:41:20;;;;;;;2.47;0.90;;;11.40;99.90;;;;;;5130287;28;20076;-79